sensor_id;sensor_type;location;lat;lon;timestamp;P1;durP1;ratioP1;P2;durP2;ratioP2
8312;SDS011;4194;43.408;24.626;2022-09-17T00:01:51;5.03;;;1.60;;
8312;SDS011;4194;43.408;24.626;2022-09-17T00:04:17;8.00;;;1.60;;
8312;SDS011;4194;43.408;24.626;2022-09-17T00:06:43;5.00;;;1.40;;
8312;SDS011;4194;43.408;24.626;2022-09-17T00:09:09;5.72;;;1.65;;
8312;SDS011;4194;43.408;24.626;2022-09-17T00:11:36;4.37;;;1.60;;
8312;SDS011;4194;43.408;24.626;2022-09-17T00:14:04;5.20;;;1.30;;
8312;SDS011;4194;43.408;24.626;2022-09-17T00:16:35;2.30;;;1.33;;
8312;SDS011;4194;43.408;24.626;2022-09-17T00:19:03;4.47;;;1.50;;
8312;SDS011;4194;43.408;24.626;2022-09-17T00:21:30;2.33;;;1.40;;
8312;SDS011;4194;43.408;24.626;2022-09-17T00:23:57;3.27;;;1.63;;
8312;SDS011;4194;43.408;24.626;2022-09-17T00:26:24;6.47;;;1.80;;
8312;SDS011;4194;43.408;24.626;2022-09-17T00:28:51;4.00;;;1.57;;
8312;SDS011;4194;43.408;24.626;2022-09-17T00:31:18;3.40;;;1.60;;
8312;SDS011;4194;43.408;24.626;2022-09-17T00:33:44;6.00;;;2.40;;
8312;SDS011;4194;43.408;24.626;2022-09-17T00:36:10;5.10;;;1.70;;
8312;SDS011;4194;43.408;24.626;2022-09-17T00:38:35;3.97;;;1.70;;
8312;SDS011;4194;43.408;24.626;2022-09-17T00:41:01;6.47;;;1.73;;
8312;SDS011;4194;43.408;24.626;2022-09-17T00:43:42;3.63;;;1.63;;
8312;SDS011;4194;43.408;24.626;2022-09-17T00:48:47;8.20;;;2.20;;
8312;SDS011;4194;43.408;24.626;2022-09-17T00:51:14;4.10;;;1.53;;
8312;SDS011;4194;43.408;24.626;2022-09-17T00:53:43;2.93;;;1.50;;
8312;SDS011;4194;43.408;24.626;2022-09-17T00:56:12;3.40;;;1.70;;
8312;SDS011;4194;43.408;24.626;2022-09-17T00:58:44;6.40;;;1.57;;
8312;SDS011;4194;43.408;24.626;2022-09-17T01:01:10;4.67;;;1.57;;
8312;SDS011;4194;43.408;24.626;2022-09-17T01:03:36;4.43;;;1.67;;
8312;SDS011;4194;43.408;24.626;2022-09-17T01:06:08;3.37;;;1.53;;
8312;SDS011;4194;43.408;24.626;2022-09-17T01:13:51;4.77;;;1.60;;
8312;SDS011;4194;43.408;24.626;2022-09-17T01:30:38;5.03;;;1.63;;
8312;SDS011;4194;43.408;24.626;2022-09-17T01:38:52;4.67;;;2.17;;
8312;SDS011;4194;43.408;24.626;2022-09-17T01:41:31;4.77;;;1.60;;
8312;SDS011;4194;43.408;24.626;2022-09-17T01:46:39;4.43;;;1.77;;
8312;SDS011;4194;43.408;24.626;2022-09-17T01:49:15;5.37;;;1.33;;
8312;SDS011;4194;43.408;24.626;2022-09-17T01:51:44;4.33;;;1.50;;
8312;SDS011;4194;43.408;24.626;2022-09-17T01:56:54;3.13;;;1.70;;
8312;SDS011;4194;43.408;24.626;2022-09-17T01:59:49;4.13;;;1.53;;
8312;SDS011;4194;43.408;24.626;2022-09-17T02:05:06;3.60;;;2.10;;
8312;SDS011;4194;43.408;24.626;2022-09-17T02:07:58;9.17;;;2.17;;
8312;SDS011;4194;43.408;24.626;2022-09-17T02:10:49;3.77;;;2.20;;
8312;SDS011;4194;43.408;24.626;2022-09-17T02:13:36;4.70;;;1.83;;
8312;SDS011;4194;43.408;24.626;2022-09-17T02:16:15;5.43;;;1.93;;
8312;SDS011;4194;43.408;24.626;2022-09-17T02:18:49;3.50;;;1.60;;
8312;SDS011;4194;43.408;24.626;2022-09-17T02:24:22;4.63;;;2.17;;
8312;SDS011;4194;43.408;24.626;2022-09-17T02:27:12;4.93;;;1.73;;
8312;SDS011;4194;43.408;24.626;2022-09-17T02:29:55;4.23;;;2.20;;
8312;SDS011;4194;43.408;24.626;2022-09-17T02:32:20;7.63;;;2.27;;
8312;SDS011;4194;43.408;24.626;2022-09-17T02:34:46;5.57;;;1.63;;
8312;SDS011;4194;43.408;24.626;2022-09-17T02:37:12;5.40;;;1.97;;
8312;SDS011;4194;43.408;24.626;2022-09-17T02:39:38;5.07;;;2.23;;
8312;SDS011;4194;43.408;24.626;2022-09-17T03:00:11;3.10;;;1.80;;
8312;SDS011;4194;43.408;24.626;2022-09-17T03:02:43;6.87;;;2.07;;
8312;SDS011;4194;43.408;24.626;2022-09-17T03:05:12;5.80;;;1.83;;
8312;SDS011;4194;43.408;24.626;2022-09-17T03:07:40;8.27;;;2.40;;
8312;SDS011;4194;43.408;24.626;2022-09-17T03:10:06;5.97;;;2.37;;
8312;SDS011;4194;43.408;24.626;2022-09-17T03:12:32;9.07;;;3.23;;
8312;SDS011;4194;43.408;24.626;2022-09-17T03:14:58;4.57;;;2.03;;
8312;SDS011;4194;43.408;24.626;2022-09-17T03:17:24;9.60;;;2.90;;
8312;SDS011;4194;43.408;24.626;2022-09-17T03:19:50;6.57;;;2.80;;
8312;SDS011;4194;43.408;24.626;2022-09-17T03:22:16;4.87;;;2.50;;
8312;SDS011;4194;43.408;24.626;2022-09-17T03:24:41;5.93;;;2.70;;
8312;SDS011;4194;43.408;24.626;2022-09-17T03:27:07;5.60;;;2.60;;
8312;SDS011;4194;43.408;24.626;2022-09-17T03:29:33;10.20;;;3.10;;
8312;SDS011;4194;43.408;24.626;2022-09-17T03:31:58;2.90;;;2.17;;
8312;SDS011;4194;43.408;24.626;2022-09-17T03:34:25;7.37;;;1.70;;
8312;SDS011;4194;43.408;24.626;2022-09-17T03:36:50;7.37;;;2.47;;
8312;SDS011;4194;43.408;24.626;2022-09-17T03:39:16;4.80;;;1.90;;
8312;SDS011;4194;43.408;24.626;2022-09-17T03:41:42;5.13;;;2.00;;
8312;SDS011;4194;43.408;24.626;2022-09-17T03:44:08;5.03;;;1.93;;
8312;SDS011;4194;43.408;24.626;2022-09-17T03:46:34;4.73;;;1.80;;
8312;SDS011;4194;43.408;24.626;2022-09-17T03:49:00;3.63;;;2.07;;
8312;SDS011;4194;43.408;24.626;2022-09-17T03:51:26;6.40;;;2.27;;
8312;SDS011;4194;43.408;24.626;2022-09-17T03:53:52;5.67;;;1.83;;
8312;SDS011;4194;43.408;24.626;2022-09-17T03:56:18;4.93;;;2.07;;
8312;SDS011;4194;43.408;24.626;2022-09-17T03:58:44;3.57;;;1.83;;
8312;SDS011;4194;43.408;24.626;2022-09-17T04:01:09;4.37;;;1.90;;
8312;SDS011;4194;43.408;24.626;2022-09-17T04:03:35;3.63;;;2.10;;
8312;SDS011;4194;43.408;24.626;2022-09-17T04:06:01;5.37;;;2.00;;
8312;SDS011;4194;43.408;24.626;2022-09-17T04:08:27;6.90;;;2.00;;
8312;SDS011;4194;43.408;24.626;2022-09-17T04:10:53;2.80;;;1.67;;
8312;SDS011;4194;43.408;24.626;2022-09-17T04:13:18;5.47;;;2.50;;
8312;SDS011;4194;43.408;24.626;2022-09-17T04:15:44;10.20;;;2.33;;
8312;SDS011;4194;43.408;24.626;2022-09-17T04:18:11;6.40;;;2.23;;
8312;SDS011;4194;43.408;24.626;2022-09-17T04:20:37;6.07;;;2.57;;
8312;SDS011;4194;43.408;24.626;2022-09-17T04:23:03;8.00;;;2.70;;
8312;SDS011;4194;43.408;24.626;2022-09-17T04:25:31;6.00;;;2.37;;
8312;SDS011;4194;43.408;24.626;2022-09-17T04:28:00;8.97;;;2.70;;
8312;SDS011;4194;43.408;24.626;2022-09-17T04:30:26;7.30;;;2.67;;
8312;SDS011;4194;43.408;24.626;2022-09-17T04:32:52;7.27;;;2.40;;
8312;SDS011;4194;43.408;24.626;2022-09-17T04:35:18;7.63;;;2.43;;
8312;SDS011;4194;43.408;24.626;2022-09-17T04:37:50;6.80;;;2.50;;
8312;SDS011;4194;43.408;24.626;2022-09-17T04:40:19;6.40;;;2.63;;
8312;SDS011;4194;43.408;24.626;2022-09-17T04:42:46;3.47;;;2.20;;
8312;SDS011;4194;43.408;24.626;2022-09-17T04:45:12;9.83;;;2.77;;
8312;SDS011;4194;43.408;24.626;2022-09-17T04:47:38;5.40;;;2.50;;
8312;SDS011;4194;43.408;24.626;2022-09-17T04:50:04;8.20;;;3.20;;
8312;SDS011;4194;43.408;24.626;2022-09-17T04:52:31;6.87;;;2.80;;
8312;SDS011;4194;43.408;24.626;2022-09-17T04:54:57;9.67;;;3.27;;
8312;SDS011;4194;43.408;24.626;2022-09-17T04:57:23;3.50;;;2.67;;
8312;SDS011;4194;43.408;24.626;2022-09-17T04:59:50;4.20;;;2.50;;
8312;SDS011;4194;43.408;24.626;2022-09-17T05:02:16;7.07;;;2.67;;
8312;SDS011;4194;43.408;24.626;2022-09-17T05:04:41;9.93;;;3.00;;
8312;SDS011;4194;43.408;24.626;2022-09-17T05:07:07;5.33;;;2.40;;
8312;SDS011;4194;43.408;24.626;2022-09-17T05:09:33;7.30;;;3.27;;
8312;SDS011;4194;43.408;24.626;2022-09-17T05:11:59;7.47;;;2.90;;
8312;SDS011;4194;43.408;24.626;2022-09-17T05:14:25;6.43;;;2.60;;
8312;SDS011;4194;43.408;24.626;2022-09-17T05:16:50;6.57;;;2.57;;
8312;SDS011;4194;43.408;24.626;2022-09-17T05:19:16;3.77;;;2.40;;
8312;SDS011;4194;43.408;24.626;2022-09-17T05:21:42;6.17;;;2.57;;
8312;SDS011;4194;43.408;24.626;2022-09-17T05:24:08;6.80;;;2.97;;
8312;SDS011;4194;43.408;24.626;2022-09-17T05:26:34;6.33;;;2.43;;
8312;SDS011;4194;43.408;24.626;2022-09-17T05:28:59;6.70;;;2.60;;
8312;SDS011;4194;43.408;24.626;2022-09-17T05:31:25;9.90;;;2.60;;
8312;SDS011;4194;43.408;24.626;2022-09-17T05:33:50;9.80;;;3.03;;
8312;SDS011;4194;43.408;24.626;2022-09-17T05:36:16;10.03;;;2.93;;
8312;SDS011;4194;43.408;24.626;2022-09-17T05:38:42;5.47;;;2.70;;
8312;SDS011;4194;43.408;24.626;2022-09-17T05:41:08;12.17;;;3.83;;
8312;SDS011;4194;43.408;24.626;2022-09-17T05:43:34;9.63;;;2.87;;
8312;SDS011;4194;43.408;24.626;2022-09-17T05:46:04;9.00;;;3.67;;
8312;SDS011;4194;43.408;24.626;2022-09-17T05:48:30;7.23;;;2.80;;
8312;SDS011;4194;43.408;24.626;2022-09-17T05:50:56;9.47;;;3.03;;
8312;SDS011;4194;43.408;24.626;2022-09-17T05:53:22;17.13;;;4.13;;
8312;SDS011;4194;43.408;24.626;2022-09-17T05:55:48;13.53;;;4.27;;
8312;SDS011;4194;43.408;24.626;2022-09-17T05:58:15;16.47;;;4.80;;
8312;SDS011;4194;43.408;24.626;2022-09-17T06:00:43;14.73;;;4.33;;
8312;SDS011;4194;43.408;24.626;2022-09-17T06:03:13;19.10;;;5.37;;
8312;SDS011;4194;43.408;24.626;2022-09-17T06:05:39;13.33;;;4.43;;
8312;SDS011;4194;43.408;24.626;2022-09-17T06:08:06;15.93;;;2.90;;
8312;SDS011;4194;43.408;24.626;2022-09-17T06:10:37;6.07;;;3.03;;
8312;SDS011;4194;43.408;24.626;2022-09-17T06:13:04;5.97;;;2.77;;
8312;SDS011;4194;43.408;24.626;2022-09-17T06:15:29;6.80;;;2.40;;
8312;SDS011;4194;43.408;24.626;2022-09-17T06:17:55;6.87;;;2.10;;
8312;SDS011;4194;43.408;24.626;2022-09-17T06:20:21;5.80;;;1.80;;
8312;SDS011;4194;43.408;24.626;2022-09-17T06:22:46;7.40;;;1.80;;
8312;SDS011;4194;43.408;24.626;2022-09-17T06:25:12;6.43;;;2.13;;
8312;SDS011;4194;43.408;24.626;2022-09-17T06:27:38;8.27;;;2.03;;
8312;SDS011;4194;43.408;24.626;2022-09-17T06:30:05;10.30;;;2.17;;
8312;SDS011;4194;43.408;24.626;2022-09-17T06:32:31;9.10;;;2.40;;
8312;SDS011;4194;43.408;24.626;2022-09-17T06:34:57;6.53;;;2.40;;
8312;SDS011;4194;43.408;24.626;2022-09-17T06:37:29;8.07;;;2.10;;
8312;SDS011;4194;43.408;24.626;2022-09-17T06:39:56;7.47;;;1.77;;
8312;SDS011;4194;43.408;24.626;2022-09-17T06:42:23;11.27;;;1.87;;
8312;SDS011;4194;43.408;24.626;2022-09-17T06:44:49;8.73;;;1.97;;
8312;SDS011;4194;43.408;24.626;2022-09-17T06:47:15;4.53;;;2.10;;
8312;SDS011;4194;43.408;24.626;2022-09-17T06:49:40;6.80;;;1.90;;
8312;SDS011;4194;43.408;24.626;2022-09-17T06:52:06;5.27;;;1.70;;
8312;SDS011;4194;43.408;24.626;2022-09-17T06:54:32;6.87;;;2.03;;
8312;SDS011;4194;43.408;24.626;2022-09-17T06:56:57;5.13;;;1.77;;
8312;SDS011;4194;43.408;24.626;2022-09-17T06:59:23;4.50;;;1.77;;
8312;SDS011;4194;43.408;24.626;2022-09-17T07:01:50;6.20;;;2.00;;
8312;SDS011;4194;43.408;24.626;2022-09-17T07:04:16;7.17;;;2.07;;
8312;SDS011;4194;43.408;24.626;2022-09-17T07:06:43;4.73;;;1.37;;
8312;SDS011;4194;43.408;24.626;2022-09-17T07:09:09;3.40;;;1.47;;
8312;SDS011;4194;43.408;24.626;2022-09-17T07:11:35;5.80;;;1.90;;
8312;SDS011;4194;43.408;24.626;2022-09-17T07:14:02;6.47;;;1.80;;
8312;SDS011;4194;43.408;24.626;2022-09-17T07:16:28;4.00;;;2.03;;
8312;SDS011;4194;43.408;24.626;2022-09-17T07:18:57;5.83;;;2.07;;
8312;SDS011;4194;43.408;24.626;2022-09-17T07:21:22;5.40;;;1.93;;
8312;SDS011;4194;43.408;24.626;2022-09-17T07:23:49;4.73;;;1.50;;
8312;SDS011;4194;43.408;24.626;2022-09-17T07:26:15;3.87;;;1.30;;
8312;SDS011;4194;43.408;24.626;2022-09-17T07:28:41;1.80;;;1.47;;
8312;SDS011;4194;43.408;24.626;2022-09-17T07:31:08;5.43;;;1.60;;
8312;SDS011;4194;43.408;24.626;2022-09-17T07:33:34;5.50;;;2.13;;
8312;SDS011;4194;43.408;24.626;2022-09-17T07:36:02;7.33;;;1.63;;
8312;SDS011;4194;43.408;24.626;2022-09-17T07:38:29;3.80;;;1.87;;
8312;SDS011;4194;43.408;24.626;2022-09-17T07:40:59;5.77;;;1.53;;
8312;SDS011;4194;43.408;24.626;2022-09-17T07:43:27;8.43;;;1.50;;
8312;SDS011;4194;43.408;24.626;2022-09-17T07:45:55;4.63;;;1.60;;
8312;SDS011;4194;43.408;24.626;2022-09-17T07:48:22;4.33;;;1.47;;
8312;SDS011;4194;43.408;24.626;2022-09-17T07:50:48;6.57;;;1.40;;
8312;SDS011;4194;43.408;24.626;2022-09-17T07:53:14;4.63;;;1.50;;
8312;SDS011;4194;43.408;24.626;2022-09-17T07:55:40;7.00;;;2.03;;
8312;SDS011;4194;43.408;24.626;2022-09-17T07:58:06;5.33;;;1.80;;
8312;SDS011;4194;43.408;24.626;2022-09-17T08:00:32;5.87;;;1.87;;
8312;SDS011;4194;43.408;24.626;2022-09-17T08:02:58;10.07;;;1.70;;
8312;SDS011;4194;43.408;24.626;2022-09-17T08:05:25;1.80;;;1.10;;
8312;SDS011;4194;43.408;24.626;2022-09-17T08:07:51;4.90;;;1.50;;
8312;SDS011;4194;43.408;24.626;2022-09-17T08:10:18;3.00;;;1.30;;
8312;SDS011;4194;43.408;24.626;2022-09-17T08:12:50;2.47;;;1.00;;
8312;SDS011;4194;43.408;24.626;2022-09-17T08:15:19;4.33;;;1.40;;
8312;SDS011;4194;43.408;24.626;2022-09-17T08:17:45;2.83;;;1.00;;
8312;SDS011;4194;43.408;24.626;2022-09-17T08:20:11;3.40;;;1.50;;
8312;SDS011;4194;43.408;24.626;2022-09-17T08:22:38;2.40;;;1.33;;
8312;SDS011;4194;43.408;24.626;2022-09-17T08:25:05;4.40;;;1.60;;
8312;SDS011;4194;43.408;24.626;2022-09-17T08:27:31;3.93;;;1.93;;
8312;SDS011;4194;43.408;24.626;2022-09-17T08:29:58;3.37;;;1.00;;
8312;SDS011;4194;43.408;24.626;2022-09-17T08:32:24;1.93;;;1.17;;
8312;SDS011;4194;43.408;24.626;2022-09-17T08:34:50;4.27;;;1.23;;
8312;SDS011;4194;43.408;24.626;2022-09-17T08:37:18;2.63;;;1.10;;
8312;SDS011;4194;43.408;24.626;2022-09-17T08:39:44;2.37;;;0.93;;
8312;SDS011;4194;43.408;24.626;2022-09-17T08:44:47;2.10;;;1.10;;
8312;SDS011;4194;43.408;24.626;2022-09-17T08:50:30;4.20;;;1.10;;
8312;SDS011;4194;43.408;24.626;2022-09-17T09:04:15;5.43;;;1.40;;
8312;SDS011;4194;43.408;24.626;2022-09-17T09:07:01;2.80;;;0.90;;
8312;SDS011;4194;43.408;24.626;2022-09-17T09:09:34;2.60;;;1.07;;
8312;SDS011;4194;43.408;24.626;2022-09-17T09:12:08;3.67;;;0.93;;
8312;SDS011;4194;43.408;24.626;2022-09-17T09:14:59;2.93;;;1.23;;
8312;SDS011;4194;43.408;24.626;2022-09-17T09:17:32;1.47;;;0.80;;
8312;SDS011;4194;43.408;24.626;2022-09-17T09:20:02;2.73;;;1.00;;
8312;SDS011;4194;43.408;24.626;2022-09-17T09:25:30;3.63;;;1.07;;
8312;SDS011;4194;43.408;24.626;2022-09-17T09:30:22;1.60;;;1.13;;
8312;SDS011;4194;43.408;24.626;2022-09-17T09:35:38;1.57;;;0.93;;
8312;SDS011;4194;43.408;24.626;2022-09-17T09:38:51;4.20;;;1.07;;
8312;SDS011;4194;43.408;24.626;2022-09-17T09:46:26;4.63;;;1.53;;
8312;SDS011;4194;43.408;24.626;2022-09-17T09:51:55;5.70;;;1.17;;
8312;SDS011;4194;43.408;24.626;2022-09-17T09:57:11;1.77;;;1.10;;
8312;SDS011;4194;43.408;24.626;2022-09-17T09:59:39;2.60;;;1.03;;
8312;SDS011;4194;43.408;24.626;2022-09-17T10:02:05;4.30;;;1.13;;
8312;SDS011;4194;43.408;24.626;2022-09-17T10:04:31;5.33;;;1.30;;
8312;SDS011;4194;43.408;24.626;2022-09-17T10:07:01;5.73;;;1.50;;
8312;SDS011;4194;43.408;24.626;2022-09-17T10:09:35;1.40;;;0.90;;
8312;SDS011;4194;43.408;24.626;2022-09-17T10:14:38;4.90;;;1.93;;
8312;SDS011;4194;43.408;24.626;2022-09-17T10:19:45;6.17;;;1.87;;
8312;SDS011;4194;43.408;24.626;2022-09-17T10:22:24;6.80;;;1.90;;
8312;SDS011;4194;43.408;24.626;2022-09-17T10:24:56;3.57;;;1.53;;
8312;SDS011;4194;43.408;24.626;2022-09-17T10:27:24;5.33;;;1.63;;
8312;SDS011;4194;43.408;24.626;2022-09-17T10:29:57;2.67;;;1.60;;
8312;SDS011;4194;43.408;24.626;2022-09-17T10:35:46;5.03;;;1.70;;
8312;SDS011;4194;43.408;24.626;2022-09-17T10:38:26;5.73;;;2.13;;
8312;SDS011;4194;43.408;24.626;2022-09-17T10:43:39;7.17;;;2.53;;
8312;SDS011;4194;43.408;24.626;2022-09-17T10:46:07;4.37;;;2.40;;
8312;SDS011;4194;43.408;24.626;2022-09-17T10:51:32;10.87;;;2.67;;
8312;SDS011;4194;43.408;24.626;2022-09-17T10:54:01;6.60;;;2.33;;
8312;SDS011;4194;43.408;24.626;2022-09-17T10:56:30;7.53;;;2.57;;
8312;SDS011;4194;43.408;24.626;2022-09-17T11:01:56;10.07;;;2.70;;
8312;SDS011;4194;43.408;24.626;2022-09-17T11:04:45;6.80;;;2.97;;
8312;SDS011;4194;43.408;24.626;2022-09-17T11:36:45;8.23;;;3.17;;
8312;SDS011;4194;43.408;24.626;2022-09-17T11:39:24;6.63;;;3.30;;
8312;SDS011;4194;43.408;24.626;2022-09-17T11:41:56;7.63;;;3.90;;
8312;SDS011;4194;43.408;24.626;2022-09-17T11:44:27;7.87;;;4.27;;
8312;SDS011;4194;43.408;24.626;2022-09-17T11:47:26;9.97;;;4.10;;
8312;SDS011;4194;43.408;24.626;2022-09-17T11:52:52;7.03;;;2.80;;
8312;SDS011;4194;43.408;24.626;2022-09-17T11:58:28;5.67;;;2.77;;
8312;SDS011;4194;43.408;24.626;2022-09-17T12:01:02;6.30;;;3.07;;
8312;SDS011;4194;43.408;24.626;2022-09-17T12:06:05;6.03;;;3.20;;
8312;SDS011;4194;43.408;24.626;2022-09-17T12:08:54;7.87;;;3.40;;
8312;SDS011;4194;43.408;24.626;2022-09-17T12:11:33;4.50;;;3.00;;
8312;SDS011;4194;43.408;24.626;2022-09-17T12:16:55;8.27;;;2.50;;
8312;SDS011;4194;43.408;24.626;2022-09-17T12:19:39;5.83;;;3.37;;
8312;SDS011;4194;43.408;24.626;2022-09-17T12:22:09;3.43;;;2.53;;
8312;SDS011;4194;43.408;24.626;2022-09-17T12:24:39;5.97;;;2.60;;
8312;SDS011;4194;43.408;24.626;2022-09-17T12:30:10;4.83;;;2.03;;
8312;SDS011;4194;43.408;24.626;2022-09-17T12:33:00;5.40;;;1.97;;
8312;SDS011;4194;43.408;24.626;2022-09-17T13:00:23;4.33;;;1.77;;
8312;SDS011;4194;43.408;24.626;2022-09-17T13:14:10;2.53;;;1.50;;
8312;SDS011;4194;43.408;24.626;2022-09-17T13:20:04;5.67;;;1.93;;
8312;SDS011;4194;43.408;24.626;2022-09-17T13:22:48;4.73;;;1.33;;
8312;SDS011;4194;43.408;24.626;2022-09-17T13:25:17;2.73;;;1.50;;
8312;SDS011;4194;43.408;24.626;2022-09-17T13:27:44;3.50;;;1.90;;
8312;SDS011;4194;43.408;24.626;2022-09-17T13:30:12;3.83;;;1.50;;
8312;SDS011;4194;43.408;24.626;2022-09-17T13:32:45;5.70;;;1.57;;
8312;SDS011;4194;43.408;24.626;2022-09-17T13:40:04;3.80;;;1.80;;
8312;SDS011;4194;43.408;24.626;2022-09-17T13:43:12;3.07;;;1.50;;
8312;SDS011;4194;43.408;24.626;2022-09-17T13:48:24;3.97;;;1.40;;
8312;SDS011;4194;43.408;24.626;2022-09-17T13:50:54;3.90;;;1.80;;
8312;SDS011;4194;43.408;24.626;2022-09-17T13:53:23;2.30;;;1.47;;
8312;SDS011;4194;43.408;24.626;2022-09-17T13:55:54;2.23;;;1.47;;
8312;SDS011;4194;43.408;24.626;2022-09-17T13:58:32;2.47;;;1.63;;
8312;SDS011;4194;43.408;24.626;2022-09-17T14:06:44;2.93;;;1.10;;
8312;SDS011;4194;43.408;24.626;2022-09-17T14:11:36;2.73;;;1.23;;
8312;SDS011;4194;43.408;24.626;2022-09-17T14:19:24;3.97;;;1.55;;
8312;SDS011;4194;43.408;24.626;2022-09-17T14:22:02;4.57;;;1.40;;
8312;SDS011;4194;43.408;24.626;2022-09-17T14:24:38;3.90;;;1.30;;
8312;SDS011;4194;43.408;24.626;2022-09-17T14:46:28;3.93;;;1.40;;
8312;SDS011;4194;43.408;24.626;2022-09-17T14:49:12;3.13;;;1.27;;
8312;SDS011;4194;43.408;24.626;2022-09-17T14:51:44;2.33;;;1.50;;
8312;SDS011;4194;43.408;24.626;2022-09-17T14:54:20;6.20;;;1.63;;
8312;SDS011;4194;43.408;24.626;2022-09-17T14:59:28;4.67;;;2.17;;
8312;SDS011;4194;43.408;24.626;2022-09-17T15:02:01;4.27;;;2.13;;
8312;SDS011;4194;43.408;24.626;2022-09-17T15:04:28;4.17;;;1.60;;
8312;SDS011;4194;43.408;24.626;2022-09-17T15:07:06;2.63;;;1.60;;
8312;SDS011;4194;43.408;24.626;2022-09-17T15:09:33;5.40;;;1.60;;
8312;SDS011;4194;43.408;24.626;2022-09-17T15:11:59;2.20;;;1.20;;
8312;SDS011;4194;43.408;24.626;2022-09-17T15:14:26;4.50;;;1.33;;
8312;SDS011;4194;43.408;24.626;2022-09-17T15:16:55;5.57;;;1.90;;
8312;SDS011;4194;43.408;24.626;2022-09-17T15:19:39;3.50;;;1.60;;
8312;SDS011;4194;43.408;24.626;2022-09-17T15:22:09;3.40;;;1.43;;
8312;SDS011;4194;43.408;24.626;2022-09-17T15:27:41;4.77;;;1.40;;
8312;SDS011;4194;43.408;24.626;2022-09-17T15:30:02;2.97;;;1.17;;
8312;SDS011;4194;43.408;24.626;2022-09-17T15:32:40;4.33;;;1.40;;
8312;SDS011;4194;43.408;24.626;2022-09-17T15:37:52;2.77;;;1.53;;
8312;SDS011;4194;43.408;24.626;2022-09-17T15:40:24;8.77;;;1.70;;
8312;SDS011;4194;43.408;24.626;2022-09-17T15:43:05;3.87;;;1.73;;
8312;SDS011;4194;43.408;24.626;2022-09-17T15:45:51;1.93;;;1.53;;
8312;SDS011;4194;43.408;24.626;2022-09-17T15:50:52;5.00;;;1.87;;
8312;SDS011;4194;43.408;24.626;2022-09-17T15:53:23;3.37;;;2.10;;
8312;SDS011;4194;43.408;24.626;2022-09-17T15:55:59;7.43;;;4.33;;
8312;SDS011;4194;43.408;24.626;2022-09-17T15:58:26;14.63;;;7.50;;
8312;SDS011;4194;43.408;24.626;2022-09-17T16:08:44;11.50;;;5.03;;
8312;SDS011;4194;43.408;24.626;2022-09-17T16:11:14;5.77;;;2.70;;
8312;SDS011;4194;43.408;24.626;2022-09-17T16:13:41;12.30;;;3.80;;
8312;SDS011;4194;43.408;24.626;2022-09-17T16:16:17;5.37;;;3.60;;
8312;SDS011;4194;43.408;24.626;2022-09-17T16:18:45;10.13;;;3.80;;
8312;SDS011;4194;43.408;24.626;2022-09-17T16:21:15;7.97;;;3.93;;
8312;SDS011;4194;43.408;24.626;2022-09-17T16:23:42;5.13;;;2.83;;
8312;SDS011;4194;43.408;24.626;2022-09-17T16:26:13;6.47;;;2.53;;
8312;SDS011;4194;43.408;24.626;2022-09-17T16:28:41;3.43;;;2.77;;
8312;SDS011;4194;43.408;24.626;2022-09-17T16:31:08;4.27;;;2.50;;
8312;SDS011;4194;43.408;24.626;2022-09-17T16:33:37;7.30;;;2.50;;
8312;SDS011;4194;43.408;24.626;2022-09-17T16:36:03;6.80;;;2.67;;
8312;SDS011;4194;43.408;24.626;2022-09-17T16:38:28;7.37;;;3.13;;
8312;SDS011;4194;43.408;24.626;2022-09-17T16:40:54;7.60;;;2.83;;
8312;SDS011;4194;43.408;24.626;2022-09-17T16:43:20;4.90;;;3.13;;
8312;SDS011;4194;43.408;24.626;2022-09-17T16:46:05;7.43;;;4.53;;
8312;SDS011;4194;43.408;24.626;2022-09-17T16:48:32;10.00;;;6.53;;
8312;SDS011;4194;43.408;24.626;2022-09-17T16:50:59;10.70;;;6.43;;
8312;SDS011;4194;43.408;24.626;2022-09-17T16:53:27;10.33;;;5.80;;
8312;SDS011;4194;43.408;24.626;2022-09-17T16:55:53;10.73;;;6.60;;
8312;SDS011;4194;43.408;24.626;2022-09-17T16:58:18;10.13;;;7.27;;
8312;SDS011;4194;43.408;24.626;2022-09-17T17:00:44;11.87;;;8.83;;
8312;SDS011;4194;43.408;24.626;2022-09-17T17:03:10;11.37;;;7.60;;
8312;SDS011;4194;43.408;24.626;2022-09-17T17:05:37;17.47;;;9.83;;
8312;SDS011;4194;43.408;24.626;2022-09-17T17:08:04;16.47;;;7.87;;
8312;SDS011;4194;43.408;24.626;2022-09-17T17:10:31;11.73;;;5.83;;
8312;SDS011;4194;43.408;24.626;2022-09-17T17:12:57;10.03;;;5.93;;
8312;SDS011;4194;43.408;24.626;2022-09-17T17:15:23;7.57;;;3.53;;
8312;SDS011;4194;43.408;24.626;2022-09-17T17:17:48;8.23;;;3.70;;
8312;SDS011;4194;43.408;24.626;2022-09-17T17:20:15;6.93;;;2.90;;
8312;SDS011;4194;43.408;24.626;2022-09-17T17:22:41;3.53;;;2.47;;
8312;SDS011;4194;43.408;24.626;2022-09-17T17:25:10;5.63;;;2.30;;
8312;SDS011;4194;43.408;24.626;2022-09-17T17:27:37;6.77;;;2.10;;
8312;SDS011;4194;43.408;24.626;2022-09-17T17:30:04;2.87;;;1.90;;
8312;SDS011;4194;43.408;24.626;2022-09-17T17:32:32;2.70;;;1.50;;
8312;SDS011;4194;43.408;24.626;2022-09-17T17:34:58;2.90;;;1.90;;
8312;SDS011;4194;43.408;24.626;2022-09-17T17:37:24;3.77;;;1.93;;
8312;SDS011;4194;43.408;24.626;2022-09-17T17:39:50;3.63;;;1.57;;
8312;SDS011;4194;43.408;24.626;2022-09-17T17:42:17;2.93;;;2.00;;
8312;SDS011;4194;43.408;24.626;2022-09-17T17:44:43;3.07;;;2.47;;
8312;SDS011;4194;43.408;24.626;2022-09-17T17:47:08;5.77;;;2.70;;
8312;SDS011;4194;43.408;24.626;2022-09-17T17:49:34;4.97;;;2.93;;
8312;SDS011;4194;43.408;24.626;2022-09-17T17:52:00;4.63;;;3.13;;
8312;SDS011;4194;43.408;24.626;2022-09-17T17:54:26;8.23;;;2.50;;
8312;SDS011;4194;43.408;24.626;2022-09-17T17:56:53;5.57;;;2.67;;
8312;SDS011;4194;43.408;24.626;2022-09-17T17:59:19;4.73;;;3.10;;
8312;SDS011;4194;43.408;24.626;2022-09-17T18:01:45;7.90;;;2.97;;
8312;SDS011;4194;43.408;24.626;2022-09-17T18:04:11;8.63;;;3.23;;
8312;SDS011;4194;43.408;24.626;2022-09-17T18:06:37;5.93;;;3.13;;
8312;SDS011;4194;43.408;24.626;2022-09-17T18:09:03;3.93;;;2.97;;
8312;SDS011;4194;43.408;24.626;2022-09-17T18:11:30;4.83;;;2.90;;
8312;SDS011;4194;43.408;24.626;2022-09-17T18:13:56;6.60;;;3.27;;
8312;SDS011;4194;43.408;24.626;2022-09-17T18:16:25;7.07;;;4.90;;
8312;SDS011;4194;43.408;24.626;2022-09-17T18:18:51;7.77;;;4.30;;
8312;SDS011;4194;43.408;24.626;2022-09-17T18:21:18;5.53;;;3.43;;
8312;SDS011;4194;43.408;24.626;2022-09-17T18:23:46;5.73;;;2.70;;
8312;SDS011;4194;43.408;24.626;2022-09-17T18:26:13;3.17;;;1.70;;
8312;SDS011;4194;43.408;24.626;2022-09-17T18:28:43;3.57;;;2.40;;
8312;SDS011;4194;43.408;24.626;2022-09-17T18:33:48;4.17;;;1.70;;
8312;SDS011;4194;43.408;24.626;2022-09-17T18:36:18;4.80;;;1.67;;
8312;SDS011;4194;43.408;24.626;2022-09-17T18:38:44;5.80;;;2.57;;
8312;SDS011;4194;43.408;24.626;2022-09-17T18:41:10;3.53;;;2.03;;
8312;SDS011;4194;43.408;24.626;2022-09-17T18:43:37;5.20;;;2.00;;
8312;SDS011;4194;43.408;24.626;2022-09-17T18:46:03;4.87;;;2.17;;
8312;SDS011;4194;43.408;24.626;2022-09-17T18:48:29;3.70;;;2.23;;
8312;SDS011;4194;43.408;24.626;2022-09-17T18:51:00;5.00;;;2.37;;
8312;SDS011;4194;43.408;24.626;2022-09-17T18:53:28;5.10;;;2.37;;
8312;SDS011;4194;43.408;24.626;2022-09-17T18:55:56;5.00;;;2.53;;
8312;SDS011;4194;43.408;24.626;2022-09-17T18:58:26;3.47;;;1.93;;
8312;SDS011;4194;43.408;24.626;2022-09-17T19:00:52;5.37;;;1.90;;
8312;SDS011;4194;43.408;24.626;2022-09-17T19:03:18;4.43;;;1.80;;
8312;SDS011;4194;43.408;24.626;2022-09-17T19:05:43;2.77;;;1.60;;
8312;SDS011;4194;43.408;24.626;2022-09-17T19:08:09;5.27;;;1.73;;
8312;SDS011;4194;43.408;24.626;2022-09-17T19:10:35;4.53;;;2.00;;
8312;SDS011;4194;43.408;24.626;2022-09-17T19:13:01;6.30;;;2.27;;
8312;SDS011;4194;43.408;24.626;2022-09-17T19:15:27;3.77;;;2.00;;
8312;SDS011;4194;43.408;24.626;2022-09-17T19:17:53;5.50;;;2.13;;
8312;SDS011;4194;43.408;24.626;2022-09-17T19:20:19;4.80;;;1.90;;
8312;SDS011;4194;43.408;24.626;2022-09-17T19:22:48;4.20;;;1.90;;
8312;SDS011;4194;43.408;24.626;2022-09-17T19:25:14;5.50;;;1.90;;
8312;SDS011;4194;43.408;24.626;2022-09-17T19:27:39;5.47;;;1.93;;